sensor_id;sensor_type;location;lat;lon;timestamp;pressure;altitude;pressure_sealevel;temperature;humidity
48968;BME280;46511;53.148;8.204;2023-04-24T00:02:12;99898.16;;;12.86;100.00
48968;BME280;46511;53.148;8.204;2023-04-24T00:04:43;99903.50;;;12.86;100.00
48968;BME280;46511;53.148;8.204;2023-04-24T00:07:18;99896.47;;;12.85;100.00
48968;BME280;46511;53.148;8.204;2023-04-24T00:09:50;99899.84;;;12.87;100.00
48968;BME280;46511;53.148;8.204;2023-04-24T00:12:22;99890.69;;;12.80;100.00
48968;BME280;46511;53.148;8.204;2023-04-24T00:14:53;99894.53;;;12.87;100.00
48968;BME280;46511;53.148;8.204;2023-04-24T00:17:24;99893.56;;;12.77;100.00
48968;BME280;46511;53.148;8.204;2023-04-24T00:19:55;99885.44;;;12.79;100.00
48968;BME280;46511;53.148;8.204;2023-04-24T00:22:29;99881.34;;;12.64;100.00
48968;BME280;46511;53.148;8.204;2023-04-24T00:25:01;99884.50;;;12.46;100.00
48968;BME280;46511;53.148;8.204;2023-04-24T00:27:32;99871.06;;;12.25;100.00
48968;BME280;46511;53.148;8.204;2023-04-24T00:30:03;99870.81;;;12.28;100.00
48968;BME280;46511;53.148;8.204;2023-04-24T00:32:35;99875.16;;;12.18;100.00
48968;BME280;46511;53.148;8.204;2023-04-24T00:35:06;99877.31;;;12.02;100.00
48968;BME280;46511;53.148;8.204;2023-04-24T00:37:38;99869.66;;;11.86;100.00
48968;BME280;46511;53.148;8.204;2023-04-24T00:40:09;99868.97;;;11.95;100.00
48968;BME280;46511;53.148;8.204;2023-04-24T00:42:41;99858.31;;;11.95;100.00
48968;BME280;46511;53.148;8.204;2023-04-24T00:45:14;99866.19;;;12.08;100.00
48968;BME280;46511;53.148;8.204;2023-04-24T00:47:45;99880.53;;;11.83;100.00
48968;BME280;46511;53.148;8.204;2023-04-24T00:50:17;99862.41;;;11.88;100.00
48968;BME280;46511;53.148;8.204;2023-04-24T00:52:48;99864.50;;;11.96;100.00
48968;BME280;46511;53.148;8.204;2023-04-24T00:55:20;99870.03;;;11.93;100.00
48968;BME280;46511;53.148;8.204;2023-04-24T00:57:51;99859.75;;;11.88;100.00
48968;BME280;46511;53.148;8.204;2023-04-24T01:00:23;99859.31;;;11.70;100.00
48968;BME280;46511;53.148;8.204;2023-04-24T01:02:55;99864.63;;;11.70;100.00
48968;BME280;46511;53.148;8.204;2023-04-24T01:05:26;99856.91;;;11.79;100.00
48968;BME280;46511;53.148;8.204;2023-04-24T01:07:57;99846.91;;;11.82;100.00
48968;BME280;46511;53.148;8.204;2023-04-24T01:10:30;99848.72;;;11.82;100.00
48968;BME280;46511;53.148;8.204;2023-04-24T01:13:05;99844.88;;;11.62;100.00
48968;BME280;46511;53.148;8.204;2023-04-24T01:15:37;99846.59;;;11.74;100.00
48968;BME280;46511;53.148;8.204;2023-04-24T01:18:09;99847.22;;;11.66;100.00
48968;BME280;46511;53.148;8.204;2023-04-24T01:20:40;99840.41;;;11.86;100.00
48968;BME280;46511;53.148;8.204;2023-04-24T01:23:08;99837.16;;;11.94;100.00
48968;BME280;46511;53.148;8.204;2023-04-24T01:25:39;99841.72;;;11.92;100.00
48968;BME280;46511;53.148;8.204;2023-04-24T01:28:10;99844.28;;;11.58;100.00
48968;BME280;46511;53.148;8.204;2023-04-24T01:30:42;99833.47;;;11.84;100.00
48968;BME280;46511;53.148;8.204;2023-04-24T01:33:14;99822.38;;;12.01;100.00
48968;BME280;46511;53.148;8.204;2023-04-24T01:35:45;99824.78;;;11.82;100.00
48968;BME280;46511;53.148;8.204;2023-04-24T01:38:16;99822.38;;;11.90;100.00
48968;BME280;46511;53.148;8.204;2023-04-24T01:40:48;99812.19;;;11.84;100.00
48968;BME280;46511;53.148;8.204;2023-04-24T01:43:20;99824.97;;;11.79;100.00
48968;BME280;46511;53.148;8.204;2023-04-24T01:45:52;99824.31;;;11.99;100.00
48968;BME280;46511;53.148;8.204;2023-04-24T01:48:24;99812.69;;;12.00;100.00
48968;BME280;46511;53.148;8.204;2023-04-24T01:50:56;99822.03;;;12.06;100.00
48968;BME280;46511;53.148;8.204;2023-04-24T01:53:27;99825.28;;;12.09;100.00
48968;BME280;46511;53.148;8.204;2023-04-24T01:55:59;99814.84;;;11.84;100.00
48968;BME280;46511;53.148;8.204;2023-04-24T01:58:30;99819.97;;;12.20;100.00
48968;BME280;46511;53.148;8.204;2023-04-24T02:00:56;99812.22;;;12.06;100.00
48968;BME280;46511;53.148;8.204;2023-04-24T02:03:29;99815.88;;;12.05;100.00
48968;BME280;46511;53.148;8.204;2023-04-24T02:06:01;99816.06;;;12.02;100.00
48968;BME280;46511;53.148;8.204;2023-04-24T02:08:32;99814.63;;;12.09;100.00
48968;BME280;46511;53.148;8.204;2023-04-24T02:11:03;99810.41;;;12.40;100.00
48968;BME280;46511;53.148;8.204;2023-04-24T02:13:35;99802.91;;;12.34;100.00
48968;BME280;46511;53.148;8.204;2023-04-24T02:16:06;99804.09;;;12.52;100.00
48968;BME280;46511;53.148;8.204;2023-04-24T02:18:37;99804.00;;;12.43;100.00
48968;BME280;46511;53.148;8.204;2023-04-24T02:21:09;99806.66;;;12.09;100.00
48968;BME280;46511;53.148;8.204;2023-04-24T02:23:41;99800.59;;;12.18;100.00
48968;BME280;46511;53.148;8.204;2023-04-24T02:26:12;99802.81;;;12.13;100.00
48968;BME280;46511;53.148;8.204;2023-04-24T02:28:44;99793.59;;;11.95;100.00
48968;BME280;46511;53.148;8.204;2023-04-24T02:31:15;99797.22;;;11.94;100.00
48968;BME280;46511;53.148;8.204;2023-04-24T02:33:46;99796.47;;;11.81;100.00
48968;BME280;46511;53.148;8.204;2023-04-24T02:36:17;99802.34;;;11.73;100.00
48968;BME280;46511;53.148;8.204;2023-04-24T02:38:49;99798.16;;;11.82;100.00
48968;BME280;46511;53.148;8.204;2023-04-24T02:41:20;99795.44;;;11.70;100.00
48968;BME280;46511;53.148;8.204;2023-04-24T02:43:51;99797.69;;;11.88;100.00
48968;BME280;46511;53.148;8.204;2023-04-24T02:46:22;99795.97;;;11.76;100.00
48968;BME280;46511;53.148;8.204;2023-04-24T02:48:54;99788.50;;;11.92;100.00
48968;BME280;46511;53.148;8.204;2023-04-24T02:51:25;99811.06;;;11.75;100.00
48968;BME280;46511;53.148;8.204;2023-04-24T02:53:57;99811.69;;;11.79;100.00
48968;BME280;46511;53.148;8.204;2023-04-24T02:56:28;99803.47;;;11.82;100.00
48968;BME280;46511;53.148;8.204;2023-04-24T02:59:00;99810.53;;;11.59;100.00
48968;BME280;46511;53.148;8.204;2023-04-24T03:01:31;99802.00;;;11.66;100.00
48968;BME280;46511;53.148;8.204;2023-04-24T03:04:02;99807.38;;;11.54;100.00
48968;BME280;46511;53.148;8.204;2023-04-24T03:06:34;99805.81;;;11.51;100.00
48968;BME280;46511;53.148;8.204;2023-04-24T03:09:06;99799.56;;;11.74;100.00
48968;BME280;46511;53.148;8.204;2023-04-24T03:11:37;99800.81;;;11.82;100.00
48968;BME280;46511;53.148;8.204;2023-04-24T03:14:08;99795.56;;;11.69;100.00
48968;BME280;46511;53.148;8.204;2023-04-24T03:16:40;99794.47;;;11.60;100.00
48968;BME280;46511;53.148;8.204;2023-04-24T03:19:11;99784.63;;;11.85;100.00
48968;BME280;46511;53.148;8.204;2023-04-24T03:21:43;99797.94;;;11.96;100.00
48968;BME280;46511;53.148;8.204;2023-04-24T03:24:14;99787.72;;;11.79;100.00
48968;BME280;46511;53.148;8.204;2023-04-24T03:26:45;99795.00;;;11.77;100.00
48968;BME280;46511;53.148;8.204;2023-04-24T03:29:17;99799.94;;;11.70;100.00
48968;BME280;46511;53.148;8.204;2023-04-24T03:31:48;99792.84;;;11.82;100.00
48968;BME280;46511;53.148;8.204;2023-04-24T03:34:19;99789.47;;;12.02;100.00
48968;BME280;46511;53.148;8.204;2023-04-24T03:36:51;99796.00;;;11.87;100.00
48968;BME280;46511;53.148;8.204;2023-04-24T03:39:23;99807.09;;;11.81;100.00
48968;BME280;46511;53.148;8.204;2023-04-24T03:41:56;99799.84;;;11.83;100.00
48968;BME280;46511;53.148;8.204;2023-04-24T03:44:27;99795.88;;;11.99;100.00
48968;BME280;46511;53.148;8.204;2023-04-24T03:46:58;99795.63;;;12.02;100.00
48968;BME280;46511;53.148;8.204;2023-04-24T03:49:29;99800.34;;;11.99;100.00
48968;BME280;46511;53.148;8.204;2023-04-24T03:52:01;99809.69;;;12.05;100.00
48968;BME280;46511;53.148;8.204;2023-04-24T03:54:32;99800.09;;;11.80;100.00
48968;BME280;46511;53.148;8.204;2023-04-24T03:57:03;99804.00;;;11.98;100.00
48968;BME280;46511;53.148;8.204;2023-04-24T03:59:35;99804.72;;;12.11;100.00
48968;BME280;46511;53.148;8.204;2023-04-24T04:02:06;99807.50;;;12.10;100.00
48968;BME280;46511;53.148;8.204;2023-04-24T04:04:38;99809.31;;;11.98;100.00
48968;BME280;46511;53.148;8.204;2023-04-24T04:07:09;99811.97;;;11.98;100.00
48968;BME280;46511;53.148;8.204;2023-04-24T04:09:42;99815.81;;;11.83;100.00
48968;BME280;46511;53.148;8.204;2023-04-24T04:12:13;99820.81;;;11.63;100.00
48968;BME280;46511;53.148;8.204;2023-04-24T04:14:44;99815.88;;;11.70;100.00
48968;BME280;46511;53.148;8.204;2023-04-24T04:17:16;99820.13;;;11.72;100.00
48968;BME280;46511;53.148;8.204;2023-04-24T04:19:47;99817.56;;;11.95;100.00
48968;BME280;46511;53.148;8.204;2023-04-24T04:22:18;99822.63;;;11.98;100.00
48968;BME280;46511;53.148;8.204;2023-04-24T04:24:50;99836.22;;;11.71;100.00
48968;BME280;46511;53.148;8.204;2023-04-24T04:27:21;99828.41;;;12.03;100.00
48968;BME280;46511;53.148;8.204;2023-04-24T04:29:53;99832.16;;;11.89;100.00
48968;BME280;46511;53.148;8.204;2023-04-24T04:32:24;99825.75;;;11.92;100.00
48968;BME280;46511;53.148;8.204;2023-04-24T04:34:55;99837.72;;;11.51;100.00
48968;BME280;46511;53.148;8.204;2023-04-24T04:37:27;99843.34;;;11.35;100.00
48968;BME280;46511;53.148;8.204;2023-04-24T04:39:59;99842.81;;;11.54;100.00
48968;BME280;46511;53.148;8.204;2023-04-24T04:42:32;99845.53;;;11.77;100.00
48968;BME280;46511;53.148;8.204;2023-04-24T04:45:05;99854.50;;;11.76;100.00
48968;BME280;46511;53.148;8.204;2023-04-24T04:47:42;99851.19;;;11.37;100.00
48968;BME280;46511;53.148;8.204;2023-04-24T04:50:13;99852.38;;;11.57;100.00
48968;BME280;46511;53.148;8.204;2023-04-24T04:52:44;99860.03;;;11.37;100.00
48968;BME280;46511;53.148;8.204;2023-04-24T04:55:16;99854.28;;;11.55;100.00
48968;BME280;46511;53.148;8.204;2023-04-24T04:57:47;99860.03;;;11.37;100.00
48968;BME280;46511;53.148;8.204;2023-04-24T05:00:19;99856.31;;;11.40;100.00
48968;BME280;46511;53.148;8.204;2023-04-24T05:02:50;99858.81;;;11.30;100.00
48968;BME280;46511;53.148;8.204;2023-04-24T05:05:22;99862.78;;;11.36;100.00
48968;BME280;46511;53.148;8.204;2023-04-24T05:07:53;99857.22;;;11.28;100.00
48968;BME280;46511;53.148;8.204;2023-04-24T05:10:24;99854.81;;;11.36;100.00
48968;BME280;46511;53.148;8.204;2023-04-24T05:12:55;99856.09;;;11.54;100.00
48968;BME280;46511;53.148;8.204;2023-04-24T05:15:27;99853.13;;;11.35;100.00
48968;BME280;46511;53.148;8.204;2023-04-24T05:17:58;99849.59;;;11.58;100.00
48968;BME280;46511;53.148;8.204;2023-04-24T05:20:29;99865.41;;;11.84;100.00
48968;BME280;46511;53.148;8.204;2023-04-24T05:23:01;99864.88;;;11.67;100.00
48968;BME280;46511;53.148;8.204;2023-04-24T05:25:32;99862.53;;;11.63;100.00
48968;BME280;46511;53.148;8.204;2023-04-24T05:28:06;99862.09;;;11.69;100.00
48968;BME280;46511;53.148;8.204;2023-04-24T05:30:37;99873.53;;;11.93;100.00
48968;BME280;46511;53.148;8.204;2023-04-24T05:33:08;99871.75;;;11.94;100.00
48968;BME280;46511;53.148;8.204;2023-04-24T05:35:40;99885.06;;;11.46;100.00
48968;BME280;46511;53.148;8.204;2023-04-24T05:38:16;99882.22;;;11.49;100.00
48968;BME280;46511;53.148;8.204;2023-04-24T05:40:50;99884.94;;;11.95;100.00
48968;BME280;46511;53.148;8.204;2023-04-24T05:43:21;99887.78;;;11.81;100.00
48968;BME280;46511;53.148;8.204;2023-04-24T05:45:52;99875.16;;;12.18;100.00
48968;BME280;46511;53.148;8.204;2023-04-24T05:48:24;99877.06;;;11.94;100.00
48968;BME280;46511;53.148;8.204;2023-04-24T05:50:55;99886.06;;;12.26;100.00
48968;BME280;46511;53.148;8.204;2023-04-24T05:53:26;99887.50;;;12.08;100.00
48968;BME280;46511;53.148;8.204;2023-04-24T05:55:58;99890.41;;;12.27;100.00
48968;BME280;46511;53.148;8.204;2023-04-24T05:58:29;99877.13;;;12.72;100.00
48968;BME280;46511;53.148;8.204;2023-04-24T06:01:00;99883.78;;;12.33;100.00
48968;BME280;46511;53.148;8.204;2023-04-24T06:03:32;99874.69;;;12.47;100.00
48968;BME280;46511;53.148;8.204;2023-04-24T06:06:04;99880.13;;;12.56;100.00
48968;BME280;46511;53.148;8.204;2023-04-24T06:08:36;99880.72;;;12.60;100.00
48968;BME280;46511;53.148;8.204;2023-04-24T06:11:08;99879.53;;;12.75;100.00
48968;BME280;46511;53.148;8.204;2023-04-24T06:13:39;99889.69;;;12.59;100.00
48968;BME280;46511;53.148;8.204;2023-04-24T06:16:10;99880.97;;;12.57;100.00
48968;BME280;46511;53.148;8.204;2023-04-24T06:18:42;99884.63;;;12.34;100.00
48968;BME280;46511;53.148;8.204;2023-04-24T06:21:13;99883.59;;;12.01;100.00
48968;BME280;46511;53.148;8.204;2023-04-24T06:23:48;99891.59;;;12.12;100.00
48968;BME280;46511;53.148;8.204;2023-04-24T06:26:20;99900.09;;;12.17;100.00
48968;BME280;46511;53.148;8.204;2023-04-24T06:28:52;99880.03;;;12.47;100.00
48968;BME280;46511;53.148;8.204;2023-04-24T06:31:24;99886.78;;;12.28;100.00
48968;BME280;46511;53.148;8.204;2023-04-24T06:33:55;99892.63;;;12.45;100.00
48968;BME280;46511;53.148;8.204;2023-04-24T06:36:27;99897.19;;;12.76;100.00
48968;BME280;46511;53.148;8.204;2023-04-24T06:38:58;99893.94;;;12.84;100.00
48968;BME280;46511;53.148;8.204;2023-04-24T06:41:30;99888.94;;;13.02;100.00
48968;BME280;46511;53.148;8.204;2023-04-24T06:44:01;99888.97;;;12.91;100.00
48968;BME280;46511;53.148;8.204;2023-04-24T06:46:32;99892.25;;;12.83;100.00
48968;BME280;46511;53.148;8.204;2023-04-24T06:49:03;99892.59;;;12.67;100.00
48968;BME280;46511;53.148;8.204;2023-04-24T06:51:35;99908.59;;;12.78;100.00
48968;BME280;46511;53.148;8.204;2023-04-24T06:54:06;99883.34;;;13.27;100.00
48968;BME280;46511;53.148;8.204;2023-04-24T06:56:37;99887.78;;;13.38;100.00
48968;BME280;46511;53.148;8.204;2023-04-24T06:59:09;99883.34;;;13.80;100.00
48968;BME280;46511;53.148;8.204;2023-04-24T07:01:40;99883.06;;;13.83;100.00
48968;BME280;46511;53.148;8.204;2023-04-24T07:04:11;99891.09;;;13.30;100.00
48968;BME280;46511;53.148;8.204;2023-04-24T07:06:44;99902.41;;;13.43;100.00
48968;BME280;46511;53.148;8.204;2023-04-24T07:09:17;99898.03;;;12.99;100.00
48968;BME280;46511;53.148;8.204;2023-04-24T07:11:49;99903.97;;;12.69;100.00
48968;BME280;46511;53.148;8.204;2023-04-24T07:14:21;99909.56;;;12.77;100.00
48968;BME280;46511;53.148;8.204;2023-04-24T07:16:52;99902.31;;;12.46;100.00
48968;BME280;46511;53.148;8.204;2023-04-24T07:19:23;99901.06;;;12.50;100.00
48968;BME280;46511;53.148;8.204;2023-04-24T07:21:55;99905.94;;;12.67;100.00
48968;BME280;46511;53.148;8.204;2023-04-24T07:24:26;99915.38;;;12.49;100.00
48968;BME280;46511;53.148;8.204;2023-04-24T07:26:57;99926.53;;;12.99;100.00
48968;BME280;46511;53.148;8.204;2023-04-24T07:29:29;99919.75;;;12.72;100.00
48968;BME280;46511;53.148;8.204;2023-04-24T07:32:00;99909.97;;;13.38;100.00
48968;BME280;46511;53.148;8.204;2023-04-24T07:34:32;99920.72;;;13.80;100.00
48968;BME280;46511;53.148;8.204;2023-04-24T07:37:03;99903.97;;;13.57;100.00
48968;BME280;46511;53.148;8.204;2023-04-24T07:39:35;99919.94;;;13.36;100.00
48968;BME280;46511;53.148;8.204;2023-04-24T07:42:06;99912.00;;;13.78;100.00
48968;BME280;46511;53.148;8.204;2023-04-24T07:44:37;99911.50;;;13.84;100.00
48968;BME280;46511;53.148;8.204;2023-04-24T07:47:09;99914.03;;;13.86;100.00
48968;BME280;46511;53.148;8.204;2023-04-24T07:49:41;99924.28;;;13.37;100.00
48968;BME280;46511;53.148;8.204;2023-04-24T07:52:12;99917.88;;;13.61;100.00
48968;BME280;46511;53.148;8.204;2023-04-24T07:54:44;99924.22;;;13.60;100.00
48968;BME280;46511;53.148;8.204;2023-04-24T07:57:15;99915.81;;;13.32;100.00
48968;BME280;46511;53.148;8.204;2023-04-24T07:59:47;99919.72;;;13.28;100.00
48968;BME280;46511;53.148;8.204;2023-04-24T08:02:18;99924.19;;;13.28;100.00
48968;BME280;46511;53.148;8.204;2023-04-24T08:04:49;99920.03;;;13.35;100.00
48968;BME280;46511;53.148;8.204;2023-04-24T08:07:21;99924.22;;;13.60;100.00
48968;BME280;46511;53.148;8.204;2023-04-24T08:09:52;99922.78;;;13.56;100.00
48968;BME280;46511;53.148;8.204;2023-04-24T08:12:24;99923.91;;;13.42;100.00
48968;BME280;46511;53.148;8.204;2023-04-24T08:14:55;99923.53;;;13.79;100.00
48968;BME280;46511;53.148;8.204;2023-04-24T08:17:26;99926.38;;;13.66;100.00
48968;BME280;46511;53.148;8.204;2023-04-24T08:19:57;99928.59;;;13.82;100.00
48968;BME280;46511;53.148;8.204;2023-04-24T08:22:32;99932.00;;;13.84;100.00
48968;BME280;46511;53.148;8.204;2023-04-24T08:25:04;99939.97;;;14.16;100.00
48968;BME280;46511;53.148;8.204;2023-04-24T08:27:36;99936.47;;;13.83;100.00
48968;BME280;46511;53.148;8.204;2023-04-24T08:30:08;99938.13;;;14.16;100.00
48968;BME280;46511;53.148;8.204;2023-04-24T08:32:39;99941.31;;;13.89;100.00
48968;BME280;46511;53.148;8.204;2023-04-24T08:35:10;99943.06;;;14.00;100.00
48968;BME280;46511;53.148;8.204;2023-04-24T08:37:42;99939.97;;;13.95;100.00
48968;BME280;46511;53.148;8.204;2023-04-24T08:40:14;99939.63;;;13.88;100.00
48968;BME280;46511;53.148;8.204;2023-04-24T08:42:46;99949.44;;;13.88;100.00
48968;BME280;46511;53.148;8.204;2023-04-24T08:45:18;99942.69;;;13.84;100.00
48968;BME280;46511;53.148;8.204;2023-04-24T08:47:49;99958.97;;;13.37;100.00
48968;BME280;46511;53.148;8.204;2023-04-24T08:50:21;99950.97;;;13.26;100.00
48968;BME280;46511;53.148;8.204;2023-04-24T08:52:53;99944.44;;;13.94;100.00
48968;BME280;46511;53.148;8.204;2023-04-24T08:55:24;99945.25;;;13.42;100.00
48968;BME280;46511;53.148;8.204;2023-04-24T08:57:56;99956.19;;;13.05;100.00
48968;BME280;46511;53.148;8.204;2023-04-24T09:00:29;99963.84;;;13.21;100.00
48968;BME280;46511;53.148;8.204;2023-04-24T09:03:01;99966.88;;;13.28;100.00
48968;BME280;46511;53.148;8.204;2023-04-24T09:05:35;99954.06;;;13.54;100.00
48968;BME280;46511;53.148;8.204;2023-04-24T09:08:07;99956.91;;;13.30;100.00
48968;BME280;46511;53.148;8.204;2023-04-24T09:10:39;99962.13;;;13.31;100.00
48968;BME280;46511;53.148;8.204;2023-04-24T09:13:11;99964.69;;;12.99;100.00
48968;BME280;46511;53.148;8.204;2023-04-24T09:15:42;99962.13;;;13.09;100.00
48968;BME280;46511;53.148;8.204;2023-04-24T09:18:13;99965.16;;;12.93;100.00
48968;BME280;46511;53.148;8.204;2023-04-24T09:23:40;99979.59;;;12.91;100.00
48968;BME280;46511;53.148;8.204;2023-04-24T09:26:11;99980.66;;;12.88;100.00
48968;BME280;46511;53.148;8.204;2023-04-24T09:28:45;99985.88;;;12.78;100.00
48968;BME280;46511;53.148;8.204;2023-04-24T09:31:18;99989.53;;;13.00;100.00
48968;BME280;46511;53.148;8.204;2023-04-24T09:36:28;99987.00;;;12.18;100.00
48968;BME280;46511;53.148;8.204;2023-04-24T09:39:04;99983.78;;;12.48;100.00
48968;BME280;46511;53.148;8.204;2023-04-24T09:41:51;99992.94;;;12.79;100.00
48968;BME280;46511;53.148;8.204;2023-04-24T09:44:25;99992.44;;;12.85;100.00
48968;BME280;46511;53.148;8.204;2023-04-24T09:46:59;99992.94;;;12.91;100.00
48968;BME280;46511;53.148;8.204;2023-04-24T09:49:31;99985.84;;;12.56;100.00
48968;BME280;46511;53.148;8.204;2023-04-24T09:52:10;100004.59;;;12.32;100.00
48968;BME280;46511;53.148;8.204;2023-04-24T09:54:42;99994.69;;;12.10;100.00
48968;BME280;46511;53.148;8.204;2023-04-24T09:57:23;99997.63;;;12.18;100.00
48968;BME280;46511;53.148;8.204;2023-04-24T09:59:55;100014.00;;;12.82;100.00
48968;BME280;46511;53.148;8.204;2023-04-24T10:02:28;100006.91;;;12.37;100.00
48968;BME280;46511;53.148;8.204;2023-04-24T10:05:02;100018.28;;;12.39;100.00
48968;BME280;46511;53.148;8.204;2023-04-24T10:07:34;100020.06;;;12.03;100.00
48968;BME280;46511;53.148;8.204;2023-04-24T10:10:05;100006.94;;;12.59;100.00
48968;BME280;46511;53.148;8.204;2023-04-24T10:12:37;100011.31;;;12.71;100.00
48968;BME280;46511;53.148;8.204;2023-04-24T10:15:09;100010.69;;;12.56;100.00
48968;BME280;46511;53.148;8.204;2023-04-24T10:17:43;100003.78;;;12.54;100.00
48968;BME280;46511;53.148;8.204;2023-04-24T10:20:23;100013.09;;;12.59;100.00
48968;BME280;46511;53.148;8.204;2023-04-24T10:23:00;100010.06;;;12.42;100.00
48968;BME280;46511;53.148;8.204;2023-04-24T10:25:32;100010.53;;;12.36;100.00
48968;BME280;46511;53.148;8.204;2023-04-24T10:28:05;100016.25;;;12.42;100.00
48968;BME280;46511;53.148;8.204;2023-04-24T10:30:33;100014.03;;;12.36;100.00
48968;BME280;46511;53.148;8.204;2023-04-24T10:33:08;100015.44;;;12.75;100.00
48968;BME280;46511;53.148;8.204;2023-04-24T10:35:45;100012.47;;;12.34;100.00
48968;BME280;46511;53.148;8.204;2023-04-24T10:38:23;100016.97;;;12.55;100.00
48968;BME280;46511;53.148;8.204;2023-04-24T10:41:06;100031.84;;;12.12;100.00
48968;BME280;46511;53.148;8.204;2023-04-24T10:43:39;100028.28;;;12.24;100.00
48968;BME280;46511;53.148;8.204;2023-04-24T10:46:16;100025.50;;;12.25;100.00
48968;BME280;46511;53.148;8.204;2023-04-24T10:48:54;100030.13;;;12.35;100.00
48968;BME280;46511;53.148;8.204;2023-04-24T10:51:43;100029.19;;;12.47;100.00
48968;BME280;46511;53.148;8.204;2023-04-24T10:54:26;100026.94;;;12.18;100.00
48968;BME280;46511;53.148;8.204;2023-04-24T10:59:52;100043.69;;;11.84;100.00
48968;BME280;46511;53.148;8.204;2023-04-24T11:02:45;100046.47;;;11.82;100.00
48968;BME280;46511;53.148;8.204;2023-04-24T11:05:20;100052.56;;;11.71;100.00
48968;BME280;46511;53.148;8.204;2023-04-24T11:08:11;100048.50;;;11.79;100.00
48968;BME280;46511;53.148;8.204;2023-04-24T11:10:43;100055.59;;;12.15;100.00
48968;BME280;46511;53.148;8.204;2023-04-24T11:13:16;100052.78;;;11.81;100.00
48968;BME280;46511;53.148;8.204;2023-04-24T11:18:49;100061.13;;;11.51;100.00
48968;BME280;46511;53.148;8.204;2023-04-24T11:21:24;100066.41;;;11.14;100.00
48968;BME280;46511;53.148;8.204;2023-04-24T11:23:55;100065.19;;;11.57;100.00
48968;BME280;46511;53.148;8.204;2023-04-24T11:26:29;100064.22;;;11.45;100.00
48968;BME280;46511;53.148;8.204;2023-04-24T11:29:09;100064.38;;;11.31;100.00
48968;BME280;46511;53.148;8.204;2023-04-24T11:31:40;100059.53;;;10.99;100.00
48968;BME280;46511;53.148;8.204;2023-04-24T11:34:13;100071.72;;;10.89;100.00
48968;BME280;46511;53.148;8.204;2023-04-24T11:36:45;100075.25;;;11.28;100.00
48968;BME280;46511;53.148;8.204;2023-04-24T11:39:18;100098.06;;;11.43;100.00
48968;BME280;46511;53.148;8.204;2023-04-24T11:41:49;100093.78;;;11.53;100.00
48968;BME280;46511;53.148;8.204;2023-04-24T11:44:21;100087.25;;;11.21;100.00
48968;BME280;46511;53.148;8.204;2023-04-24T11:46:56;100096.19;;;11.82;100.00
48968;BME280;46511;53.148;8.204;2023-04-24T11:49:27;100096.50;;;12.14;100.00
48968;BME280;46511;53.148;8.204;2023-04-24T11:52:01;100100.75;;;12.16;100.00
48968;BME280;46511;53.148;8.204;2023-04-24T11:54:33;100103.66;;;12.13;100.00
48968;BME280;46511;53.148;8.204;2023-04-24T11:57:05;100111.66;;;12.48;100.00
48968;BME280;46511;53.148;8.204;2023-04-24T11:59:37;100121.38;;;12.25;100.00
48968;BME280;46511;53.148;8.204;2023-04-24T12:02:08;100127.16;;;11.83;100.00
48968;BME280;46511;53.148;8.204;2023-04-24T12:04:50;100128.28;;;11.42;100.00
48968;BME280;46511;53.148;8.204;2023-04-24T12:07:23;100128.84;;;11.22;100.00
48968;BME280;46511;53.148;8.204;2023-04-24T12:09:58;100137.97;;;11.30;100.00
48968;BME280;46511;53.148;8.204;2023-04-24T12:12:33;100155.22;;;10.99;100.00
48968;BME280;46511;53.148;8.204;2023-04-24T12:15:07;100155.00;;;11.02;100.00
48968;BME280;46511;53.148;8.204;2023-04-24T12:17:41;100167.22;;;11.05;100.00
48968;BME280;46511;53.148;8.204;2023-04-24T12:20:13;100170.28;;;10.86;100.00
48968;BME280;46511;53.148;8.204;2023-04-24T12:22:55;100179.81;;;10.88;100.00
48968;BME280;46511;53.148;8.204;2023-04-24T12:25:28;100189.59;;;10.75;100.00
48968;BME280;46511;53.148;8.204;2023-04-24T12:30:40;100208.56;;;10.56;100.00
48968;BME280;46511;53.148;8.204;2023-04-24T12:33:21;100210.38;;;10.42;100.00
48968;BME280;46511;53.148;8.204;2023-04-24T12:35:53;100222.06;;;10.66;100.00
48968;BME280;46511;53.148;8.204;2023-04-24T12:38:26;100234.16;;;10.57;100.00
48968;BME280;46511;53.148;8.204;2023-04-24T12:41:08;100237.00;;;10.81;100.00
48968;BME280;46511;53.148;8.204;2023-04-24T12:43:53;100236.28;;;10.52;100.00
48968;BME280;46511;53.148;8.204;2023-04-24T12:46:26;100230.16;;;10.65;100.00
48968;BME280;46511;53.148;8.204;2023-04-24T12:48:57;100250.31;;;10.54;100.00
48968;BME280;46511;53.148;8.204;2023-04-24T12:51:29;100260.00;;;10.13;100.00
48968;BME280;46511;53.148;8.204;2023-04-24T12:54:01;100265.50;;;10.38;100.00
48968;BME280;46511;53.148;8.204;2023-04-24T12:56:32;100262.41;;;10.58;100.00
48968;BME280;46511;53.148;8.204;2023-04-24T12:59:03;100272.56;;;10.25;100.00
48968;BME280;46511;53.148;8.204;2023-04-24T13:01:35;100271.34;;;10.57;100.00
48968;BME280;46511;53.148;8.204;2023-04-24T13:04:06;100282.75;;;10.45;100.00
48968;BME280;46511;53.148;8.204;2023-04-24T13:06:38;100282.31;;;10.66;100.00
48968;BME280;46511;53.148;8.204;2023-04-24T13:09:09;100277.72;;;10.55;100.00
48968;BME280;46511;53.148;8.204;2023-04-24T13:11:40;100279.75;;;10.37;100.00
48968;BME280;46511;53.148;8.204;2023-04-24T13:14:12;100287.53;;;10.26;100.00
48968;BME280;46511;53.148;8.204;2023-04-24T13:16:43;100293.56;;;10.14;100.00
48968;BME280;46511;53.148;8.204;2023-04-24T13:19:09;100301.94;;;10.08;100.00
48968;BME280;46511;53.148;8.204;2023-04-24T13:21:41;100303.47;;;10.67;100.00
48968;BME280;46511;53.148;8.204;2023-04-24T13:24:07;100303.00;;;10.61;100.00
48968;BME280;46511;53.148;8.204;2023-04-24T13:26:39;100307.34;;;10.76;100.00
48968;BME280;46511;53.148;8.204;2023-04-24T13:29:11;100308.41;;;10.59;100.00